Time;durP1;ratioP1;P1;durP2;ratioP2;P2;SDS_P1;SDS_P2;PMS_P1;PMS_P2;Temp;Humidity;BMP_temperature;BMP_pressure;BME280_temperature;BME280_humidity;BME280_pressure;Samples;Min_cycle;Max_cycle;Signal;HPM_P1;HPM_P2
2021/04/28 00:01:08;;;;;;;2.80;1.38;;;8.70;57.00;;;;;;5099559;27;20028;-63
2021/04/28 00:03:34;;;;;;;3.55;1.35;;;8.60;56.50;;;;;;5102372;28;20043;-63
2021/04/28 00:05:59;;;;;;;2.95;1.60;;;8.60;57.20;;;;;;5099121;28;20404;-64
2021/04/28 00:08:25;;;;;;;4.15;1.67;;;8.50;57.40;;;;;;5098046;28;20396;-63
2021/04/28 00:10:50;;;;;;;2.63;1.50;;;8.50;57.10;;;;;;5100476;28;20392;-63
2021/04/28 00:13:17;;;;;;;5.95;1.63;;;8.50;57.20;;;;;;5097430;28;20044;-64
2021/04/28 00:15:46;;;;;;;2.35;1.40;;;8.50;57.60;;;;;;5101162;27;20124;-63
2021/04/28 00:18:14;;;;;;;6.90;1.45;;;8.50;57.70;;;;;;5105335;27;20501;-64
2021/04/28 00:20:41;;;;;;;6.50;1.58;;;8.50;57.90;;;;;;5103022;28;20039;-63
2021/04/28 00:23:08;;;;;;;20.45;2.00;;;8.40;58.30;;;;;;5098323;28;20035;-63
2021/04/28 00:25:35;;;;;;;5.57;1.52;;;8.40;58.70;;;;;;5098983;27;20405;-63
2021/04/28 00:28:01;;;;;;;5.78;2.00;;;8.30;59.20;;;;;;5098308;27;20463;-63
2021/04/28 00:30:27;;;;;;;3.97;1.50;;;8.30;59.00;;;;;;5098368;28;20080;-63
2021/04/28 00:32:53;;;;;;;5.55;1.75;;;8.20;59.50;;;;;;5098968;27;20063;-64
2021/04/28 00:35:20;;;;;;;5.13;1.50;;;8.20;60.10;;;;;;5097381;28;20060;-63
2021/04/28 00:37:46;;;;;;;3.85;1.63;;;8.10;60.50;;;;;;5105687;27;20040;-64
2021/04/28 00:40:33;;;;;;;3.75;2.20;;;8.00;61.70;;;;;;5096698;28;20024;-63
2021/04/28 00:42:59;;;;;;;5.22;1.55;;;7.90;62.00;;;;;;5098055;28;20737;-64
2021/04/28 00:45:26;;;;;;;3.33;1.73;;;7.90;62.50;;;;;;5098374;28;20039;-63
2021/04/28 00:47:57;;;;;;;7.07;1.75;;;7.80;63.00;;;;;;5097168;28;20028;-64
2021/04/28 00:50:31;;;;;;;1.88;1.15;;;7.90;62.60;;;;;;5103406;27;20035;-63
2021/04/28 00:52:57;;;;;;;6.88;2.00;;;7.80;62.30;;;;;;5098712;28;20032;-63
2021/04/28 00:55:22;;;;;;;4.88;1.67;;;7.80;63.80;;;;;;5098184;28;20031;-63
2021/04/28 00:57:50;;;;;;;2.88;1.63;;;7.80;63.60;;;;;;5100083;28;20086;-64
2021/04/28 01:00:17;;;;;;;6.13;1.63;;;7.80;62.70;;;;;;5096187;28;20446;-64
2021/04/28 01:02:43;;;;;;;3.50;1.73;;;7.80;63.10;;;;;;5096807;28;20089;-63
2021/04/28 01:05:10;;;;;;;4.35;1.75;;;7.80;63.20;;;;;;5099713;28;20043;-63
2021/04/28 01:07:37;;;;;;;2.22;1.38;;;7.70;64.00;;;;;;5097410;27;20035;-63
2021/04/28 01:10:06;;;;;;;8.32;1.95;;;7.80;63.90;;;;;;5098127;27;20493;-63
2021/04/28 01:12:32;;;;;;;4.20;1.80;;;7.80;63.10;;;;;;5097909;28;20074;-63
2021/04/28 01:15:00;;;;;;;7.22;1.80;;;7.70;64.30;;;;;;5097976;28;20040;-63
2021/04/28 01:17:26;;;;;;;6.75;1.45;;;7.60;63.80;;;;;;5099677;28;20066;-64
2021/04/28 01:19:53;;;;;;;6.03;1.63;;;7.60;64.10;;;;;;5099011;28;20027;-65
2021/04/28 01:22:20;;;;;;;5.18;1.77;;;7.60;64.90;;;;;;5099091;28;20072;-64
2021/04/28 01:24:46;;;;;;;3.38;1.35;;;7.60;64.10;;;;;;5095589;28;20078;-63
2021/04/28 01:27:19;;;;;;;2.35;1.50;;;7.70;63.60;;;;;;5097964;28;20667;-64
2021/04/28 01:29:45;;;;;;;3.80;1.55;;;7.60;63.50;;;;;;5094149;28;20036;-63
2021/04/28 01:32:19;;;;;;;3.47;1.52;;;7.70;63.30;;;;;;5095694;28;20047;-64
2021/04/28 01:34:47;;;;;;;4.15;1.27;;;7.60;65.00;;;;;;5095851;28;20284;-63
2021/04/28 01:37:13;;;;;;;3.20;2.05;;;7.60;63.90;;;;;;5101192;27;20040;-63
2021/04/28 01:39:40;;;;;;;7.60;2.55;;;7.60;64.40;;;;;;5099042;28;20438;-63
2021/04/28 01:42:06;;;;;;;4.03;1.90;;;7.60;65.50;;;;;;5096077;28;20175;-63
2021/04/28 01:44:32;;;;;;;3.58;1.27;;;7.60;65.10;;;;;;5097530;28;20036;-64
2021/04/28 01:47:00;;;;;;;2.63;1.40;;;7.60;65.20;;;;;;5096501;28;20070;-64
2021/04/28 01:49:26;;;;;;;4.38;1.45;;;7.50;65.90;;;;;;5096433;28;20032;-63
2021/04/28 01:51:55;;;;;;;2.72;1.40;;;7.50;66.30;;;;;;5101928;27;20028;-63
2021/04/28 01:54:22;;;;;;;3.70;1.83;;;7.50;66.30;;;;;;5095873;28;20400;-63
2021/04/28 01:56:49;;;;;;;4.82;1.70;;;7.40;67.90;;;;;;5098088;28;20104;-63
2021/04/28 01:59:16;;;;;;;5.30;1.95;;;7.50;67.60;;;;;;5102284;28;20062;-63
2021/04/28 02:01:46;;;;;;;4.10;1.60;;;7.40;68.90;;;;;;5099302;28;20028;-63
2021/04/28 02:04:13;;;;;;;2.53;1.60;;;7.30;68.70;;;;;;5094932;28;20111;-63
2021/04/28 02:06:40;;;;;;;11.25;2.00;;;7.30;69.30;;;;;;5098524;28;20051;-63
2021/04/28 02:09:06;;;;;;;5.05;1.98;;;7.20;69.50;;;;;;5095078;28;20031;-63
2021/04/28 02:11:32;;;;;;;2.50;1.33;;;7.30;71.20;;;;;;5097916;28;20457;-63
2021/04/28 02:13:59;;;;;;;3.40;2.03;;;7.20;70.50;;;;;;5096634;28;20116;-63
2021/04/28 02:16:29;;;;;;;6.03;1.92;;;7.30;71.10;;;;;;5096350;28;20032;-63
2021/04/28 02:18:56;;;;;;;5.43;1.50;;;7.20;71.40;;;;;;5096699;28;20080;-63
2021/04/28 02:21:21;;;;;;;1.67;1.20;;;7.20;73.00;;;;;;5097161;28;20024;-64
2021/04/28 02:23:48;;;;;;;3.55;2.22;;;7.20;73.70;;;;;;5098541;28;20036;-64
2021/04/28 02:26:14;;;;;;;9.65;1.95;;;7.20;74.30;;;;;;5095114;28;20085;-63
2021/04/28 02:28:39;;;;;;;7.30;2.03;;;7.20;75.50;;;;;;5098652;28;20439;-64
2021/04/28 02:31:05;;;;;;;6.32;1.70;;;7.10;76.30;;;;;;5098319;28;20119;-65
2021/04/28 02:33:33;;;;;;;5.95;1.48;;;7.10;75.80;;;;;;5095639;28;20052;-63
2021/04/28 02:35:58;;;;;;;4.35;1.70;;;7.10;76.10;;;;;;5097454;28;20063;-64
2021/04/28 02:38:27;;;;;;;8.32;1.80;;;7.10;76.00;;;;;;5100939;28;20060;-64
2021/04/28 02:40:54;;;;;;;7.40;1.70;;;7.10;77.20;;;;;;5101132;27;20050;-64
2021/04/28 02:43:21;;;;;;;7.03;1.83;;;7.00;78.10;;;;;;5100519;28;20043;-64
2021/04/28 02:45:50;;;;;;;3.60;1.58;;;7.00;79.30;;;;;;5101541;28;20492;-64
2021/04/28 02:48:17;;;;;;;8.25;2.00;;;7.00;79.60;;;;;;5098831;28;20032;-64
2021/04/28 02:50:43;;;;;;;3.53;1.65;;;6.90;81.00;;;;;;5105659;27;20059;-64
2021/04/28 02:53:14;;;;;;;3.00;2.03;;;6.90;79.20;;;;;;5099248;28;20131;-65
2021/04/28 02:55:39;;;;;;;;;;;6.80;80.20;;;;;;5110374;28;20031;-63
2021/04/28 02:58:06;;;;;;;5.15;2.50;;;6.80;80.90;;;;;;5099366;28;19938;-64
2021/04/28 03:00:31;;;;;;;5.88;2.20;;;6.70;80.30;;;;;;5100888;28;20519;-64
2021/04/28 03:02:57;;;;;;;6.40;1.80;;;6.70;82.90;;;;;;5100122;28;20040;-63
2021/04/28 03:05:24;;;;;;;4.63;1.75;;;6.70;82.80;;;;;;5100239;27;20572;-64
2021/04/28 03:07:51;;;;;;;6.50;1.73;;;6.80;81.60;;;;;;5101799;28;20031;-64
2021/04/28 03:10:18;;;;;;;8.15;3.40;;;6.80;80.20;;;;;;5109772;28;20020;-64
2021/04/28 03:12:45;;;;;;;8.57;1.95;;;6.70;79.60;;;;;;5114504;28;20039;-64
2021/04/28 03:15:14;;;;;;;4.40;2.20;;;6.70;80.30;;;;;;5110971;28;20028;-63
2021/04/28 03:17:41;;;;;;;5.35;2.40;;;6.70;81.10;;;;;;5107346;28;20032;-64
2021/04/28 03:20:08;;;;;;;7.65;2.35;;;6.70;80.50;;;;;;5102103;28;20043;-64
2021/04/28 03:22:36;;;;;;;4.55;2.20;;;6.60;82.50;;;;;;5098132;28;20028;-64
2021/04/28 03:25:03;;;;;;;5.70;2.00;;;6.60;81.50;;;;;;5101273;28;20043;-63
2021/04/28 03:27:29;;;;;;;5.22;2.38;;;6.50;83.10;;;;;;5096819;28;20036;-64
2021/04/28 03:29:54;;;;;;;4.80;2.03;;;6.50;82.60;;;;;;5100511;28;20062;-64
2021/04/28 03:32:20;;;;;;;3.95;1.42;;;6.50;84.50;;;;;;5099584;28;20070;-64
2021/04/28 03:34:45;;;;;;;4.85;2.08;;;6.40;86.20;;;;;;5098724;28;20046;-64
2021/04/28 03:37:11;;;;;;;4.85;2.40;;;6.40;83.80;;;;;;5100987;27;20047;-64
2021/04/28 03:39:37;;;;;;;6.85;2.10;;;6.40;84.70;;;;;;5100797;27;20027;-63
2021/04/28 03:42:03;;;;;;;9.30;3.15;;;6.40;85.30;;;;;;5098095;28;20028;-64
2021/04/28 03:44:29;;;;;;;5.90;2.25;;;6.40;83.80;;;;;;5100788;27;20038;-63
2021/04/28 03:46:54;;;;;;;4.35;1.80;;;6.40;84.30;;;;;;5099242;28;20468;-64
2021/04/28 03:49:20;;;;;;;3.17;1.90;;;6.40;85.30;;;;;;5099033;27;20071;-64
2021/04/28 03:51:46;;;;;;;5.13;1.73;;;6.50;83.40;;;;;;5102569;27;20053;-63
2021/04/28 03:54:13;;;;;;;5.90;1.98;;;6.40;85.20;;;;;;5099217;28;20024;-63
2021/04/28 03:56:40;;;;;;;4.32;2.30;;;6.40;85.00;;;;;;5101234;27;20079;-64
2021/04/28 03:59:07;;;;;;;3.65;1.80;;;6.40;86.00;;;;;;5102143;28;20031;-64
2021/04/28 04:01:32;;;;;;;4.88;1.80;;;6.30;86.40;;;;;;5099971;28;20034;-64
2021/04/28 04:03:58;;;;;;;6.65;1.88;;;6.30;88.50;;;;;;5104225;28;20117;-64
2021/04/28 04:06:24;;;;;;;3.97;2.15;;;6.20;90.00;;;;;;5096365;28;20066;-67
2021/04/28 04:08:49;;;;;;;9.43;2.33;;;6.20;90.20;;;;;;5099568;28;20039;-64
2021/04/28 04:11:15;;;;;;;3.20;1.77;;;6.10;90.00;;;;;;5099944;28;20036;-64
2021/04/28 04:13:41;;;;;;;29.77;2.83;;;6.20;89.10;;;;;;5097702;28;20078;-63
2021/04/28 04:16:06;;;;;;;3.47;1.88;;;6.20;90.00;;;;;;5098915;28;20039;-64
2021/04/28 04:18:32;;;;;;;6.43;1.90;;;6.10;89.40;;;;;;5099074;28;20053;-64
2021/04/28 04:20:58;;;;;;;3.20;1.92;;;6.20;89.30;;;;;;5098680;28;20129;-63
2021/04/28 04:23:23;;;;;;;11.48;2.15;;;6.20;89.70;;;;;;5100289;27;20258;-64
2021/04/28 04:25:49;;;;;;;3.20;1.83;;;6.20;89.40;;;;;;5096421;28;20043;-64
2021/04/28 04:28:14;;;;;;;4.95;2.55;;;6.10;91.00;;;;;;5097608;28;20043;-64
2021/04/28 04:30:40;;;;;;;4.63;2.60;;;6.10;91.30;;;;;;5099593;27;20039;-64
2021/04/28 04:33:06;;;;;;;6.72;1.98;;;6.10;90.80;;;;;;5097175;27;20032;-64
2021/04/28 04:35:31;;;;;;;8.27;2.67;;;6.10;90.90;;;;;;5100001;28;20028;-65
2021/04/28 04:37:57;;;;;;;3.95;1.70;;;6.00;91.00;;;;;;5105575;27;20733;-63
2021/04/28 04:40:22;;;;;;;8.52;3.42;;;6.00;90.90;;;;;;5097032;28;20028;-64
2021/04/28 04:42:48;;;;;;;7.00;2.17;;;6.00;90.70;;;;;;5098213;28;20115;-64
2021/04/28 04:45:14;;;;;;;5.65;1.95;;;6.00;90.90;;;;;;5097215;28;20404;-63
2021/04/28 04:47:39;;;;;;;6.70;2.22;;;6.00;91.10;;;;;;5096962;28;20036;-64
2021/04/28 04:50:07;;;;;;;4.53;2.63;;;6.00;91.20;;;;;;5100243;27;20062;-63
2021/04/28 04:52:32;;;;;;;5.22;1.95;;;6.10;91.00;;;;;;5099954;28;20051;-63
2021/04/28 04:54:59;;;;;;;7.50;2.25;;;6.00;91.90;;;;;;5096411;28;20069;-63
2021/04/28 04:57:28;;;;;;;12.07;2.58;;;6.10;91.30;;;;;;5098997;28;20028;-64
2021/04/28 04:59:53;;;;;;;4.85;2.10;;;6.10;91.50;;;;;;5096146;28;20048;-64
2021/04/28 05:02:19;;;;;;;6.18;2.03;;;6.20;91.50;;;;;;5098852;28;20085;-63
2021/04/28 05:04:44;;;;;;;5.00;2.25;;;6.20;90.80;;;;;;5097586;28;20039;-64
2021/04/28 05:07:10;;;;;;;8.65;2.17;;;6.30;90.30;;;;;;5096779;28;20414;-63
2021/04/28 05:09:36;;;;;;;3.95;2.05;;;6.30;90.50;;;;;;5098889;28;20452;-63
2021/04/28 05:12:01;;;;;;;11.13;2.40;;;6.30;89.90;;;;;;5095886;28;20431;-64
2021/04/28 05:14:27;;;;;;;5.32;2.80;;;6.40;89.20;;;;;;5097124;27;20115;-64
2021/04/28 05:16:52;;;;;;;8.98;3.55;;;6.40;89.70;;;;;;5092770;28;20035;-64
2021/04/28 05:19:18;;;;;;;7.35;2.03;;;6.40;90.10;;;;;;5096537;28;20131;-64
2021/04/28 05:21:44;;;;;;;6.03;2.30;;;6.30;90.10;;;;;;5096070;27;20477;-64
2021/04/28 05:24:09;;;;;;;7.30;2.20;;;6.40;90.20;;;;;;5095824;28;20051;-64
2021/04/28 05:26:35;;;;;;;9.57;3.50;;;6.40;90.80;;;;;;5097170;28;20514;-64
2021/04/28 05:29:00;;;;;;;6.80;2.63;;;6.40;90.20;;;;;;5095056;28;20042;-64
2021/04/28 05:31:26;;;;;;;7.90;2.35;;;6.50;90.00;;;;;;5096198;28;20028;-64
2021/04/28 05:33:51;;;;;;;5.97;2.03;;;6.50;90.50;;;;;;5097574;28;20126;-64
2021/04/28 05:36:17;;;;;;;7.35;3.15;;;6.60;90.10;;;;;;5096638;27;20280;-64
2021/04/28 05:38:43;;;;;;;7.47;2.42;;;6.60;89.00;;;;;;5092436;28;20036;-64
2021/04/28 05:41:09;;;;;;;6.10;2.13;;;6.70;88.80;;;;;;5097726;27;20035;-64
2021/04/28 05:43:34;;;;;;;6.10;2.30;;;6.70;90.10;;;;;;5105671;27;20036;-64
2021/04/28 05:46:01;;;;;;;5.00;2.15;;;6.80;89.30;;;;;;5095604;28;20059;-64
2021/04/28 05:48:27;;;;;;;4.80;2.35;;;7.00;87.60;;;;;;5096462;27;20427;-64
2021/04/28 05:50:52;;;;;;;4.38;2.08;;;7.10;87.70;;;;;;5096036;27;20093;-64
2021/04/28 05:53:18;;;;;;;6.78;1.95;;;7.30;87.00;;;;;;5097456;28;20028;-64
2021/04/28 05:55:44;;;;;;;6.75;2.03;;;7.60;83.00;;;;;;5094237;28;20028;-64
2021/04/28 05:58:10;;;;;;;6.43;1.90;;;8.70;79.40;;;;;;5097537;28;20032;-64
2021/04/28 06:00:36;;;;;;;10.25;1.90;;;10.30;69.60;;;;;;5094563;28;20039;-64
2021/04/28 06:03:02;;;;;;;5.57;1.90;;;12.00;58.60;;;;;;5097611;28;20039;-64
2021/04/28 06:05:28;;;;;;;7.72;2.40;;;12.90;54.30;;;;;;5098671;28;20121;-65
2021/04/28 06:07:54;;;;;;;4.72;1.85;;;14.00;53.50;;;;;;5093916;28;20033;-65
2021/04/28 06:10:20;;;;;;;6.88;1.90;;;15.10;50.80;;;;;;5094158;28;20198;-64
2021/04/28 06:12:46;;;;;;;5.35;2.03;;;16.30;46.30;;;;;;5098272;28;20389;-64
2021/04/28 06:15:14;;;;;;;5.72;1.90;;;17.10;44.20;;;;;;5094450;28;20039;-65
2021/04/28 06:17:40;;;;;;;5.68;1.63;;;16.90;42.90;;;;;;5094821;28;20523;-65
2021/04/28 06:20:08;;;;;;;4.43;1.85;;;17.00;42.30;;;;;;5097470;28;20427;-65
2021/04/28 06:22:34;;;;;;;3.47;1.85;;;17.50;42.10;;;;;;5092395;28;20505;-64
2021/04/28 06:24:59;;;;;;;4.65;1.92;;;18.10;41.40;;;;;;5094155;28;20062;-66
2021/04/28 06:27:25;;;;;;;3.47;1.90;;;18.60;39.60;;;;;;5094924;28;20039;-65
2021/04/28 06:29:51;;;;;;;7.70;2.17;;;17.70;39.80;;;;;;5090980;28;20078;-67
2021/04/28 06:32:17;;;;;;;5.00;2.03;;;16.80;40.70;;;;;;5095829;28;20032;-66
2021/04/28 06:34:42;;;;;;;8.13;1.70;;;15.80;42.60;;;;;;5092331;28;20086;-66
2021/04/28 06:40:30;;;;;;;6.65;1.92;;;15.20;44.70;;;;;;5083201;28;20415;-66
2021/04/28 06:42:55;;;;;;;4.35;2.10;;;15.70;43.50;;;;;;5096918;28;20036;-65
2021/04/28 06:45:21;;;;;;;4.80;1.95;;;17.20;43.10;;;;;;5089210;28;20151;-64
2021/04/28 06:47:46;;;;;;;4.07;2.13;;;18.70;40.10;;;;;;5092775;28;20401;-65
2021/04/28 06:50:12;;;;;;;8.48;1.83;;;19.00;39.70;;;;;;5095665;27;20088;-66
2021/04/28 06:52:42;;;;;;;4.45;2.05;;;19.90;38.10;;;;;;5096042;28;20027;-65
2021/04/28 06:55:09;;;;;;;;;;;19.60;38.10;;;;;;5091807;28;20044;-67
2021/04/28 06:57:34;;;;;;;8.95;1.95;;;19.00;38.40;;;;;;5094154;28;19915;-66
2021/04/28 07:00:00;;;;;;;11.30;1.70;;;18.70;38.20;;;;;;5091752;28;20439;-66
2021/04/28 07:02:25;;;;;;;4.28;1.90;;;19.00;38.80;;;;;;5092586;28;20097;-66
2021/04/28 07:04:51;;;;;;;5.07;1.92;;;19.10;38.20;;;;;;5093951;28;20040;-66
2021/04/28 07:07:16;;;;;;;9.50;2.20;;;18.80;38.00;;;;;;5093088;28;20020;-66
2021/04/28 07:09:42;;;;;;;5.65;2.75;;;18.00;39.10;;;;;;5093415;28;20512;-66
2021/04/28 07:12:07;;;;;;;5.00;2.13;;;17.30;40.00;;;;;;5092114;28;20031;-65
2021/04/28 07:14:33;;;;;;;5.28;2.38;;;17.00;41.00;;;;;;5090227;28;20051;-66
2021/04/28 07:16:59;;;;;;;3.97;1.65;;;16.30;42.10;;;;;;5094113;28;20051;-66
2021/04/28 07:19:24;;;;;;;5.35;2.25;;;16.00;42.00;;;;;;5091411;28;20839;-66
2021/04/28 07:21:50;;;;;;;8.10;2.92;;;16.10;42.40;;;;;;5095778;28;20438;-66
2021/04/28 07:24:15;;;;;;;5.05;2.25;;;16.40;43.00;;;;;;5092993;28;20032;-66
2021/04/28 07:26:41;;;;;;;4.10;1.88;;;16.90;41.60;;;;;;5096587;28;20558;-66
2021/04/28 07:29:06;;;;;;;7.65;2.03;;;17.80;41.10;;;;;;5096085;28;20471;-66
2021/04/28 07:31:32;;;;;;;6.05;2.05;;;18.50;40.00;;;;;;5102635;28;20066;-66
2021/04/28 07:33:58;;;;;;;4.00;2.00;;;19.00;38.50;;;;;;5099769;28;20039;-66
2021/04/28 07:36:24;;;;;;;7.60;2.20;;;18.90;38.60;;;;;;5100030;27;20039;-66
2021/04/28 07:38:49;;;;;;;2.80;2.05;;;19.00;37.80;;;;;;5097885;28;20100;-66
2021/04/28 07:41:15;;;;;;;12.70;2.00;;;18.90;38.10;;;;;;5094788;28;20047;-67
2021/04/28 07:43:41;;;;;;;4.78;2.30;;;18.50;38.50;;;;;;5095506;28;20319;-66
2021/04/28 07:46:06;;;;;;;6.03;2.47;;;18.40;39.20;;;;;;5097372;28;20052;-66
2021/04/28 07:48:32;;;;;;;4.15;2.45;;;18.10;39.10;;;;;;5096046;28;20057;-66
2021/04/28 07:51:00;;;;;;;3.88;2.33;;;18.00;38.90;;;;;;5095643;27;20040;-66
2021/04/28 07:53:27;;;;;;;7.63;2.17;;;17.70;39.90;;;;;;5096449;28;20035;-66
2021/04/28 07:55:53;;;;;;;5.63;2.13;;;17.40;40.20;;;;;;5100244;28;20112;-66
2021/04/28 07:58:19;;;;;;;5.78;2.97;;;17.00;41.00;;;;;;5096229;28;20091;-66
2021/04/28 08:00:45;;;;;;;10.93;2.40;;;16.70;41.70;;;;;;5098122;28;20484;-63
2021/04/28 08:03:10;;;;;;;6.60;2.03;;;16.40;41.40;;;;;;5097709;28;20036;-64
2021/04/28 08:05:36;;;;;;;4.07;2.30;;;16.20;42.30;;;;;;5097729;28;20024;-64
2021/04/28 08:08:02;;;;;;;4.85;2.90;;;16.00;42.20;;;;;;5099290;28;20043;-64
2021/04/28 08:10:28;;;;;;;7.68;2.72;;;15.90;42.60;;;;;;5107293;28;20132;-66
2021/04/28 08:12:54;;;;;;;8.40;2.80;;;15.70;43.10;;;;;;5100321;28;20397;-66
2021/04/28 08:15:20;;;;;;;7.65;2.47;;;15.60;43.30;;;;;;5097217;28;20036;-66
2021/04/28 08:17:46;;;;;;;6.20;2.50;;;15.70;43.20;;;;;;5096189;27;20401;-64
2021/04/28 08:20:12;;;;;;;4.82;2.38;;;15.70;43.70;;;;;;5099190;28;20039;-63
2021/04/28 08:22:38;;;;;;;7.90;2.30;;;15.50;44.20;;;;;;5097548;28;20484;-64
2021/04/28 08:25:07;;;;;;;7.15;2.63;;;15.50;44.70;;;;;;5097738;28;20032;-64
2021/04/28 08:27:32;;;;;;;8.55;3.03;;;15.70;44.60;;;;;;5097173;28;20028;-64
2021/04/28 08:29:58;;;;;;;6.45;2.33;;;16.00;44.20;;;;;;5094616;28;20046;-63
2021/04/28 08:32:25;;;;;;;7.13;2.70;;;16.20;43.30;;;;;;5097137;27;20439;-64
2021/04/28 08:34:51;;;;;;;4.60;2.53;;;16.20;43.50;;;;;;5096952;28;20059;-64
2021/04/28 08:37:16;;;;;;;5.97;2.65;;;16.00;42.40;;;;;;5102325;27;20481;-64
2021/04/28 08:39:42;;;;;;;10.45;2.30;;;15.90;42.80;;;;;;5101609;28;20035;-64
2021/04/28 08:42:09;;;;;;;4.68;2.47;;;15.80;43.30;;;;;;5097661;27;20549;-64
2021/04/28 08:44:35;;;;;;;5.88;2.72;;;15.60;43.40;;;;;;5098606;28;20500;-66
2021/04/28 08:47:01;;;;;;;4.68;2.80;;;15.60;43.30;;;;;;5097695;28;20032;-64
2021/04/28 08:49:26;;;;;;;4.45;2.60;;;15.80;43.70;;;;;;5097621;28;20087;-64
2021/04/28 08:51:53;;;;;;;5.95;2.47;;;15.80;42.80;;;;;;5102501;27;20031;-66
2021/04/28 08:54:19;;;;;;;5.30;2.25;;;15.90;43.70;;;;;;5096099;28;20032;-66
2021/04/28 08:56:52;;;;;;;9.57;3.15;;;16.00;43.60;;;;;;5096050;28;20107;-65
2021/04/28 08:59:19;;;;;;;6.20;2.45;;;15.90;42.80;;;;;;5095501;28;20104;-65
2021/04/28 09:01:46;;;;;;;7.85;2.00;;;15.90;42.90;;;;;;5099480;28;20480;-65
2021/04/28 09:04:19;;;;;;;5.88;2.33;;;15.90;43.00;;;;;;5095873;28;20452;-65
2021/04/28 09:06:46;;;;;;;7.05;2.92;;;16.00;43.20;;;;;;5099774;28;20557;-64
2021/04/28 09:09:17;;;;;;;6.28;2.30;;;16.10;42.60;;;;;;5096048;28;20063;-64
2021/04/28 09:11:48;;;;;;;5.70;2.72;;;15.80;42.80;;;;;;5098432;28;20032;-65
2021/04/28 09:14:18;;;;;;;5.80;2.47;;;15.50;43.10;;;;;;5095980;28;20043;-64
2021/04/28 09:16:54;;;;;;;7.07;2.60;;;15.30;43.20;;;;;;5095293;28;20040;-66
2021/04/28 09:19:29;;;;;;;7.85;2.58;;;15.10;43.90;;;;;;5102697;28;20044;-65
2021/04/28 09:22:04;;;;;;;7.35;3.00;;;15.20;44.00;;;;;;5096589;28;20032;-65
2021/04/28 09:24:34;;;;;;;7.10;2.63;;;15.50;43.90;;;;;;5098266;28;20488;-65
2021/04/28 09:27:00;;;;;;;6.80;2.78;;;15.60;43.70;;;;;;5097208;28;20036;-65
2021/04/28 09:29:31;;;;;;;3.53;2.42;;;15.70;43.60;;;;;;5093290;28;20024;-64
2021/04/28 09:32:07;;;;;;;5.20;2.60;;;15.90;43.20;;;;;;5095557;28;20123;-65
2021/04/28 09:34:42;;;;;;;6.10;2.88;;;16.10;43.10;;;;;;5097492;28;20028;-65
2021/04/28 09:37:12;;;;;;;6.85;3.17;;;16.40;43.20;;;;;;5099420;27;20434;-65
2021/04/28 09:39:47;;;;;;;8.15;2.70;;;16.70;43.30;;;;;;5097559;28;20030;-65
2021/04/28 09:42:20;;;;;;;8.90;2.72;;;16.70;42.90;;;;;;5094337;28;20024;-65
2021/04/28 09:44:49;;;;;;;8.82;2.80;;;16.80;42.70;;;;;;5094790;28;20105;-65
2021/04/28 09:47:25;;;;;;;5.18;2.85;;;16.50;42.90;;;;;;5094169;28;20035;-64
2021/04/28 09:49:57;;;;;;;5.60;2.67;;;16.10;43.60;;;;;;5095971;28;20028;-67
2021/04/28 09:52:30;;;;;;;5.72;3.10;;;15.80;43.60;;;;;;5099097;27;20039;-64
2021/04/28 09:54:59;;;;;;;5.30;3.05;;;15.80;44.00;;;;;;5097487;28;20043;-65
2021/04/28 09:57:40;;;;;;;6.93;2.80;;;15.70;45.40;;;;;;5098975;28;20035;-64
2021/04/28 10:00:29;;;;;;;5.47;2.78;;;15.80;44.50;;;;;;5095590;28;20040;-64
2021/04/28 10:02:56;;;;;;;7.45;2.90;;;15.90;45.10;;;;;;5095640;28;20044;-65
2021/04/28 10:05:23;;;;;;;9.10;2.88;;;16.00;45.00;;;;;;5096885;28;20496;-66
2021/04/28 10:07:50;;;;;;;8.45;3.15;;;16.20;44.90;;;;;;5095489;28;20511;-65
2021/04/28 10:10:17;;;;;;;10.57;2.88;;;16.40;44.30;;;;;;5096395;28;20063;-65
2021/04/28 10:12:43;;;;;;;6.15;3.58;;;16.60;43.60;;;;;;5093436;28;20032;-65
2021/04/28 10:15:10;;;;;;;7.93;3.00;;;16.70;43.40;;;;;;5093158;28;20031;-65
2021/04/28 10:17:36;;;;;;;4.85;2.40;;;17.00;43.10;;;;;;5095978;28;20036;-66
2021/04/28 10:20:04;;;;;;;6.32;2.80;;;17.10;43.00;;;;;;5094324;28;20663;-66
2021/04/28 10:22:31;;;;;;;4.53;2.85;;;17.00;42.70;;;;;;5096300;28;20106;-65
2021/04/28 10:24:57;;;;;;;14.98;3.17;;;17.00;43.10;;;;;;5097636;28;20043;-68
2021/04/28 10:27:24;;;;;;;9.18;3.20;;;17.10;43.20;;;;;;5098676;28;20028;-65
2021/04/28 10:29:52;;;;;;;6.35;2.92;;;17.10;42.30;;;;;;5094179;28;20626;-65
2021/04/28 10:32:20;;;;;;;6.55;3.20;;;17.20;43.20;;;;;;5098437;28;20078;-65
2021/04/28 10:35:08;;;;;;;5.68;3.05;;;17.30;42.50;;;;;;5102488;28;20024;-66
2021/04/28 10:37:36;;;;;;;5.90;3.30;;;17.20;42.90;;;;;;5103956;27;20044;-65
2021/04/28 10:40:10;;;;;;;6.68;3.10;;;17.20;42.70;;;;;;5094811;28;20066;-65
2021/04/28 10:42:37;;;;;;;8.40;3.15;;;17.30;42.30;;;;;;5095813;28;20067;-65
2021/04/28 10:45:28;;;;;;;8.82;3.45;;;17.50;43.10;;;;;;5093944;28;20090;-65
2021/04/28 10:47:55;;;;;;;6.30;3.65;;;17.50;42.60;;;;;;5094441;28;20035;-65
2021/04/28 10:50:45;;;;;;;8.38;3.70;;;17.20;43.30;;;;;;5098566;28;20039;-65
2021/04/28 10:53:20;;;;;;;9.00;3.40;;;17.10;42.70;;;;;;5096244;28;20032;-65
2021/04/28 10:55:53;;;;;;;6.95;3.42;;;16.90;43.10;;;;;;5093695;28;20400;-65
2021/04/28 10:58:34;;;;;;;5.40;2.95;;;17.00;44.20;;;;;;5096621;28;20027;-65
2021/04/28 11:01:00;;;;;;;5.93;3.45;;;17.00;43.20;;;;;;5096890;28;20412;-66
2021/04/28 11:03:35;;;;;;;5.50;3.13;;;17.20;43.00;;;;;;5098391;28;20032;-65
2021/04/28 11:06:28;;;;;;;6.57;2.55;;;17.40;42.80;;;;;;5096481;28;20047;-66
2021/04/28 11:08:53;;;;;;;7.78;2.90;;;17.60;42.50;;;;;;5097952;28;20600;-65
2021/04/28 11:14:08;;;;;;;12.27;3.22;;;18.00;43.20;;;;;;5098047;27;20098;-65
2021/04/28 11:16:42;;;;;;;6.45;3.05;;;18.00;42.80;;;;;;5100100;28;20046;-65
2021/04/28 11:19:26;;;;;;;7.55;3.13;;;18.00;40.60;;;;;;5096587;28;20481;-65
2021/04/28 11:22:17;;;;;;;9.45;3.30;;;17.80;41.10;;;;;;5098520;28;20044;-65
2021/04/28 11:25:03;;;;;;;;;;;17.90;42.10;;;;;;5098437;27;20039;-65
2021/04/28 11:27:46;;;;;;;4.95;2.78;;;18.00;42.60;;;;;;5103555;27;20407;-67
2021/04/28 11:30:22;;;;;;;9.80;2.97;;;18.30;41.30;;;;;;5103575;27;20480;-65
2021/04/28 11:33:31;;;;;;;8.98;3.30;;;18.20;40.40;;;;;;5100401;27;20028;-65
2021/04/28 11:35:56;;;;;;;10.90;3.70;;;18.40;40.80;;;;;;5098813;28;20055;-65
2021/04/28 11:38:22;;;;;;;13.05;3.58;;;18.50;41.20;;;;;;5098802;27;20044;-65
2021/04/28 11:41:00;;;;;;;7.47;3.33;;;18.50;40.70;;;;;;5115155;27;20037;-65
2021/04/28 11:43:28;;;;;;;6.00;3.15;;;18.70;41.70;;;;;;5099675;27;20123;-65
2021/04/28 11:46:05;;;;;;;7.53;3.25;;;18.80;40.60;;;;;;5100502;28;21427;-65
2021/04/28 11:48:32;;;;;;;4.75;3.22;;;18.60;40.70;;;;;;5101870;27;20028;-65
2021/04/28 11:51:03;;;;;;;9.07;3.92;;;18.60;40.60;;;;;;5096672;28;20523;-66
2021/04/28 11:53:30;;;;;;;8.18;2.92;;;18.60;41.80;;;;;;5104958;28;20032;-66
2021/04/28 11:55:56;;;;;;;7.30;3.72;;;18.60;41.30;;;;;;5100792;27;20122;-65
2021/04/28 11:58:24;;;;;;;7.22;3.40;;;18.60;41.00;;;;;;5095743;28;20480;-65
2021/04/28 12:01:11;;;;;;;8.52;3.35;;;18.50;40.00;;;;;;5095944;28;20139;-66
2021/04/28 12:03:53;;;;;;;9.25;3.80;;;18.40;42.20;;;;;;5102734;28;20448;-65
2021/04/28 12:06:34;;;;;;;8.75;3.67;;;18.40;41.40;;;;;;5096865;28;20050;-66
2021/04/28 12:09:07;;;;;;;7.95;3.45;;;18.50;41.20;;;;;;5099083;27;20085;-65
2021/04/28 12:11:34;;;;;;;7.57;4.00;;;18.50;40.50;;;;;;5094573;27;20067;-65
2021/04/28 12:14:00;;;;;;;6.55;3.25;;;18.40;40.60;;;;;;5103795;27;20032;-65
2021/04/28 12:16:25;;;;;;;9.57;3.70;;;18.30;41.20;;;;;;5098551;28;20046;-64
2021/04/28 12:19:05;;;;;;;5.78;3.55;;;18.30;41.60;;;;;;5099646;27;20070;-64
2021/04/28 12:21:31;;;;;;;6.60;3.35;;;18.40;41.80;;;;;;5100556;27;20043;-65
2021/04/28 12:23:59;;;;;;;8.07;3.60;;;18.40;41.80;;;;;;5100045;27;20095;-64
2021/04/28 12:26:24;;;;;;;7.45;3.83;;;18.30;41.90;;;;;;5101043;27;20046;-65
2021/04/28 12:28:50;;;;;;;9.65;3.67;;;18.40;41.50;;;;;;5096936;27;20044;-65
2021/04/28 12:31:17;;;;;;;10.05;3.80;;;18.30;41.60;;;;;;5117392;27;20031;-65
2021/04/28 12:33:42;;;;;;;11.90;4.03;;;18.30;41.60;;;;;;5092388;27;20573;-65
2021/04/28 12:36:08;;;;;;;10.93;4.07;;;18.40;42.00;;;;;;5098563;27;20122;-65
2021/04/28 12:38:40;;;;;;;11.63;3.95;;;18.40;42.10;;;;;;5106527;27;20486;-65
2021/04/28 12:41:07;;;;;;;8.68;4.18;;;18.50;41.40;;;;;;5100316;28;20578;-66
2021/04/28 12:43:38;;;;;;;6.85;3.60;;;18.60;41.00;;;;;;5102965;28;20374;-65
2021/04/28 12:46:11;;;;;;;8.52;4.20;;;18.70;41.40;;;;;;5104780;27;20126;-65
2021/04/28 12:48:53;;;;;;;9.25;4.20;;;18.70;40.90;;;;;;5094831;27;20555;-65
2021/04/28 12:51:19;;;;;;;7.97;3.88;;;18.70;41.30;;;;;;5094863;27;20032;-66
2021/04/28 12:53:45;;;;;;;7.25;3.97;;;18.60;41.60;;;;;;5093405;28;20039;-65
2021/04/28 12:56:11;;;;;;;8.38;3.83;;;18.60;41.00;;;;;;5095389;28;20345;-65
2021/04/28 12:58:48;;;;;;;11.07;4.50;;;18.80;41.10;;;;;;5103314;27;20039;-65
2021/04/28 13:01:22;;;;;;;7.85;4.25;;;19.00;41.70;;;;;;5102146;27;20111;-65
2021/04/28 13:03:47;;;;;;;7.57;4.53;;;19.00;40.80;;;;;;5106456;27;20072;-66